createdAt,value
2018-09-08T00:01:23.533Z,5
2018-09-08T00:07:18.557Z,5.34
2018-09-08T00:13:13.564Z,5.73
2018-09-08T00:19:08.572Z,4.97
2018-09-08T00:25:03.563Z,5.4
2018-09-08T00:30:58.575Z,5.24
2018-09-08T00:36:53.598Z,6.07
2018-09-08T00:42:48.595Z,5.06
2018-09-08T00:48:43.547Z,5.51
2018-09-08T01:12:23.597Z,5.39
2018-09-08T01:12:23.804Z,5.17
2018-09-08T01:12:23.804Z,5.17
2018-09-08T01:12:23.857Z,5.17
2018-09-08T01:18:18.615Z,6.2
2018-09-08T01:24:13.575Z,5.58
2018-09-08T01:30:08.585Z,5.28
2018-09-08T01:36:03.576Z,5.92
2018-09-08T01:41:58.569Z,5.69
2018-09-08T01:47:53.648Z,5.77
2018-09-08T01:53:48.578Z,6.47
2018-09-08T01:59:43.639Z,6.15
2018-09-08T02:05:38.629Z,6.29
2018-09-08T02:11:33.581Z,6.73
2018-09-08T02:17:28.610Z,6.43
2018-09-08T02:23:23.571Z,6.51
2018-09-08T02:29:18.595Z,5.81
2018-09-08T02:35:13.592Z,6
2018-09-08T02:41:08.599Z,5.67
2018-09-08T02:47:03.594Z,6.15
2018-09-08T02:52:58.596Z,5.9
2018-09-08T02:58:53.593Z,5.48
2018-09-08T03:04:48.606Z,5.46
2018-09-08T03:10:43.670Z,5.42
2018-09-08T03:16:38.588Z,5.45
2018-09-08T03:22:33.669Z,5.1
2018-09-08T03:28:28.644Z,4.89
2018-09-08T03:34:23.597Z,5.17
2018-09-08T03:40:18.608Z,5.13
2018-09-08T03:46:13.628Z,4.52
2018-09-08T04:15:48.622Z,4.93
2018-09-08T04:15:48.676Z,4.8
2018-09-08T04:15:48.700Z,4.8
2018-09-08T04:15:48.741Z,4.8
2018-09-08T04:21:43.605Z,4.56
2018-09-08T04:27:38.617Z,4.07
2018-09-08T04:33:33.586Z,5.22
2018-09-08T04:39:28.697Z,5
2018-09-08T04:45:23.613Z,5.99
2018-09-08T04:51:18.652Z,8.6
2018-09-08T04:57:13.644Z,12.24
2018-09-08T05:03:08.620Z,21.28
2018-09-08T05:09:03.672Z,34.62
2018-09-08T05:14:58.654Z,11.27
2018-09-08T05:20:53.623Z,28.15
2018-09-08T05:26:48.690Z,78.67
2018-09-08T05:32:43.607Z,82.19
2018-09-08T05:38:38.619Z,77.73
2018-09-08T05:44:33.646Z,56.4
2018-09-08T05:50:28.612Z,38.63
2018-09-08T05:56:23.604Z,31.36
2018-09-08T06:02:18.610Z,33.74
2018-09-08T06:08:13.610Z,26.65
2018-09-08T06:14:08.603Z,22.17
2018-09-08T06:20:03.600Z,22.39
2018-09-08T06:25:58.666Z,21.79
2018-09-08T06:31:53.692Z,20.42
2018-09-08T06:37:48.615Z,15.94
2018-09-08T06:43:43.632Z,14.52
2018-09-08T06:49:38.617Z,14.19
2018-09-08T07:13:18.625Z,13.73
2018-09-08T07:13:18.835Z,11.97
2018-09-08T07:13:18.851Z,11.97
2018-09-08T07:13:18.867Z,11.97
2018-09-08T07:19:13.631Z,9.53
2018-09-08T07:25:08.695Z,10.25
2018-09-08T07:31:03.701Z,9.41
2018-09-08T07:36:58.647Z,9.3
2018-09-08T07:42:53.662Z,11.95
2018-09-08T07:48:48.617Z,10.02
2018-09-08T07:54:43.651Z,10.63
2018-09-08T08:00:38.635Z,7.51
2018-09-08T08:06:33.663Z,6.42
2018-09-08T08:12:28.623Z,7.03
2018-09-08T08:18:23.659Z,7.02
2018-09-08T08:24:18.658Z,7.54
2018-09-08T08:30:13.651Z,7.12
2018-09-08T08:36:08.678Z,7.46
2018-09-08T08:42:03.639Z,6.27
2018-09-08T08:47:58.670Z,6.84
2018-09-08T08:53:53.646Z,6.16
2018-09-08T08:59:48.662Z,5.86
2018-09-08T09:05:43.649Z,5.51
2018-09-08T09:11:38.892Z,3.75
2018-09-08T09:17:33.671Z,3.64
2018-09-08T09:23:28.658Z,4.48
2018-09-08T09:29:23.683Z,4.08
2018-09-08T09:35:18.665Z,3.64
2018-09-08T09:41:13.669Z,3.94
2018-09-08T09:47:08.694Z,3.33
2018-09-08T10:16:43.698Z,2.9
2018-09-08T10:16:43.885Z,3.07
2018-09-08T10:16:43.901Z,3
2018-09-08T10:16:43.993Z,3
2018-09-08T10:22:38.693Z,3.19
2018-09-08T10:28:33.684Z,2.99
2018-09-08T10:34:28.711Z,2.72
2018-09-08T10:40:23.847Z,2.73
2018-09-08T10:46:18.770Z,2.95
2018-09-08T10:52:13.713Z,3.11
2018-09-08T10:58:08.744Z,2.58
2018-09-08T11:04:03.745Z,2.63
2018-09-08T11:09:58.721Z,2.91
2018-09-08T11:15:53.735Z,3
2018-09-08T11:21:48.706Z,2.56
2018-09-08T11:27:43.723Z,2.85
2018-09-08T11:33:38.712Z,2.54
2018-09-08T11:39:33.714Z,2.27
2018-09-08T11:45:28.738Z,2.9
2018-09-08T11:51:23.717Z,2.59
2018-09-08T11:57:18.759Z,2.93
2018-09-08T12:03:13.775Z,2.76
2018-09-08T12:09:08.752Z,2.48
2018-09-08T12:15:03.737Z,2.49
2018-09-08T12:20:58.918Z,2.43
2018-09-08T12:26:53.753Z,2.57
2018-09-08T12:32:48.743Z,2.34
2018-09-08T12:38:43.802Z,2.64
2018-09-08T12:44:38.788Z,2.33
2018-09-08T12:50:33.737Z,2.88
2018-09-08T13:14:13.850Z,2.26
2018-09-08T13:14:13.949Z,2.26
2018-09-08T13:14:13.949Z,2.25
2018-09-08T13:14:13.949Z,2.26
2018-09-08T13:20:08.820Z,1.72
2018-09-08T13:26:03.777Z,1.85
2018-09-08T13:31:58.781Z,2.22
2018-09-08T13:37:53.788Z,2.12
2018-09-08T13:43:48.787Z,2.13
2018-09-08T13:49:43.792Z,2.41
2018-09-08T13:55:38.805Z,2.07
2018-09-08T14:01:33.828Z,1.88
2018-09-08T14:07:28.846Z,1.93
2018-09-08T14:13:23.789Z,1.91
2018-09-08T14:19:18.840Z,2.26
2018-09-08T14:25:13.833Z,1.99
2018-09-08T14:31:08.799Z,2.18
2018-09-08T14:37:03.884Z,2.22
2018-09-08T14:42:58.794Z,2.37
2018-09-08T14:48:53.808Z,2.28
2018-09-08T14:54:48.807Z,2.22
2018-09-08T15:00:43.803Z,2.26
2018-09-08T15:06:38.815Z,2.38
2018-09-08T15:12:33.857Z,2.5
2018-09-08T15:18:28.818Z,2.07
2018-09-08T15:24:23.869Z,2.71
2018-09-08T15:30:18.848Z,2.34
2018-09-08T15:36:13.820Z,2.21
2018-09-08T15:42:08.853Z,2.44
2018-09-08T15:48:03.844Z,2.12
2018-09-08T16:17:38.872Z,2.29
2018-09-08T16:17:38.911Z,2.35
2018-09-08T16:17:38.940Z,2.35
2018-09-08T16:17:38.973Z,2.35
2018-09-08T16:23:33.846Z,2.37
2018-09-08T16:29:28.853Z,2.61
2018-09-08T16:35:23.910Z,2.87
2018-09-08T16:41:18.855Z,2.57
2018-09-08T16:47:13.870Z,2.45
2018-09-08T16:53:08.884Z,2.52
2018-09-08T16:59:03.860Z,2.65
2018-09-08T17:04:58.924Z,2.57
2018-09-08T17:10:53.926Z,2.95
2018-09-08T17:16:48.902Z,2.84
2018-09-08T17:22:44.008Z,2.52
2018-09-08T17:28:38.935Z,3.28
2018-09-08T17:34:33.883Z,3.13
2018-09-08T17:40:28.878Z,3.78
2018-09-08T17:46:23.864Z,3.01
2018-09-08T17:52:18.866Z,3.39
2018-09-08T17:58:13.859Z,3.38
2018-09-08T18:04:08.868Z,3.65
2018-09-08T18:10:03.947Z,3.59
2018-09-08T18:15:58.889Z,3.09
2018-09-08T18:21:53.904Z,3.37
2018-09-08T18:27:48.879Z,2.86
2018-09-08T18:33:43.916Z,3.24
2018-09-08T18:39:38.951Z,3.03
2018-09-08T18:45:33.935Z,4.05
2018-09-08T18:51:28.932Z,3.57
2018-09-08T19:15:08.939Z,3.89
2018-09-08T19:15:09.001Z,3.57
2018-09-08T19:15:09.024Z,3.57
2018-09-08T19:15:09.035Z,3.57
2018-09-08T19:21:03.920Z,3.49
2018-09-08T19:26:58.946Z,3.87
2018-09-08T19:32:53.947Z,3.84
2018-09-08T19:38:48.967Z,3.41
2018-09-08T19:44:43.946Z,4.14
2018-09-08T19:50:38.935Z,3.75
2018-09-08T19:56:33.932Z,4.5
2018-09-08T20:02:28.911Z,3.42
2018-09-08T20:08:23.965Z,3.4
2018-09-08T20:14:18.928Z,3.55
2018-09-08T20:20:13.934Z,3
2018-09-08T20:26:08.927Z,3.35
2018-09-08T20:32:03.964Z,3.66
2018-09-08T20:37:58.961Z,3.88
2018-09-08T20:43:53.933Z,3.37
2018-09-08T20:49:48.943Z,3.64
2018-09-08T20:55:43.958Z,3.55
2018-09-08T21:01:38.968Z,4.49
2018-09-08T21:07:33.989Z,3.67
2018-09-08T21:13:28.950Z,3.87
2018-09-08T21:19:23.996Z,4.12
2018-09-08T21:25:19.041Z,4.75
2018-09-08T21:31:13.969Z,3.57
2018-09-08T21:37:08.945Z,3.25
2018-09-08T21:43:04.012Z,3.49
2018-09-08T21:48:58.993Z,3.51
2018-09-08T22:18:33.998Z,3.53
2018-09-08T22:18:34.213Z,4.12
2018-09-08T22:18:34.220Z,4.12
2018-09-08T22:18:34.225Z,4.12
2018-09-08T22:24:28.973Z,4.54
2018-09-08T22:30:23.983Z,5.62
2018-09-08T22:36:18.981Z,5.25
2018-09-08T22:42:13.980Z,4.51
2018-09-08T22:48:08.984Z,5.46
2018-09-08T22:54:03.986Z,4.53
2018-09-08T22:59:58.993Z,4.95
2018-09-08T23:05:53.978Z,4.87
2018-09-08T23:11:49.012Z,5.26
2018-09-08T23:17:44.013Z,4.02
2018-09-08T23:23:39.036Z,3.51
2018-09-08T23:29:33.993Z,3.84
2018-09-08T23:35:29.010Z,4.1
2018-09-08T23:41:24.013Z,4.23
2018-09-08T23:47:19.016Z,4.87
2018-09-08T23:53:14.020Z,5.15
2018-09-08T23:59:09.039Z,4.95
